Time;durP1;ratioP1;P1;durP2;ratioP2;P2;SDS_P1;SDS_P2;PMS_P1;PMS_P2;Temp;Humidity;BMP_temperature;BMP_pressure;BME280_temperature;BME280_humidity;BME280_pressure;Samples;Min_cycle;Max_cycle;Signal;HPM_P1;HPM_P2
2022/10/02 00:02:37;;;;;;;14.83;6.25;;;;;;;13.88;100.00;99148.28;1734703;82;21096;-66
2022/10/02 00:05:12;;;;;;;13.60;6.72;;;;;;;13.89;100.00;99139.37;1693302;78;21830;-65
2022/10/02 00:07:45;;;;;;;13.83;6.72;;;;;;;13.84;100.00;99144.13;1663938;85;21061;-65
2022/10/02 00:10:34;;;;;;;12.18;6.08;;;;;;;13.84;100.00;99161.34;1663958;86;21155;-65
2022/10/02 00:13:04;;;;;;;8.20;6.08;;;;;;;13.85;100.00;99168.34;1663293;86;21577;-65
2022/10/02 00:15:34;;;;;;;9.70;5.55;;;;;;;13.85;100.00;99177.61;1663401;86;21683;-65
2022/10/02 00:18:05;;;;;;;7.55;5.67;;;;;;;13.92;100.00;99176.25;1663704;86;21770;-66
2022/10/02 00:20:38;;;;;;;9.53;5.90;;;;;;;13.90;100.00;99181.27;1663281;84;21132;-65
2022/10/02 00:23:21;;;;;;;8.83;5.87;;;;;;;13.92;100.00;99176.25;1662845;85;21092;-64
2022/10/02 00:25:59;;;;;;;7.80;5.60;;;;;;;13.93;100.00;99159.41;1663432;86;21076;-66
2022/10/02 00:29:05;;;;;;;8.43;5.33;;;;;;;13.91;100.00;99134.83;1663786;86;21140;-65
2022/10/02 00:32:00;;;;;;;8.98;5.58;;;;;;;13.86;100.00;99113.12;1663490;86;21169;-66
2022/10/02 00:35:06;;;;;;;8.58;5.05;;;;;;;13.85;100.00;99103.50;1663347;86;21116;-64
2022/10/02 00:37:59;;;;;;;7.30;4.97;;;;;;;13.86;100.00;99094.60;1647219;85;21116;-65
2022/10/02 00:40:37;;;;;;;10.10;5.05;;;;;;;13.82;100.00;99083.36;1634827;85;21167;-65
2022/10/02 00:43:31;;;;;;;12.25;5.12;;;;;;;13.77;100.00;99081.50;1663230;86;21148;-64
2022/10/02 00:46:21;;;;;;;6.20;5.17;;;;;;;13.77;100.00;99080.66;1691238;84;21169;-65
2022/10/02 00:49:02;;;;;;;8.70;5.20;;;;;;;13.76;100.00;99068.40;1691578;84;21057;-66
2022/10/02 00:51:49;;;;;;;7.35;4.95;;;;;;;13.67;100.00;99064.56;1691515;84;21061;-66
2022/10/02 00:54:32;;;;;;;9.63;4.75;;;;;;;13.64;100.00;99051.06;1691518;84;21128;-64
2022/10/02 00:57:10;;;;;;;10.28;5.40;;;;;;;13.61;100.00;99043.31;1691672;84;21104;-65
2022/10/02 00:59:56;;;;;;;10.72;4.72;;;;;;;13.60;100.00;99036.34;1691626;84;21932;-65
2022/10/02 01:02:51;;;;;;;9.03;4.40;;;;;;;13.60;100.00;99027.09;1691262;84;21061;-65
2022/10/02 01:05:18;;;;;;;6.67;4.40;;;;;;;13.56;100.00;99011.04;1691490;84;21090;-65
2022/10/02 01:07:46;;;;;;;7.45;4.22;;;;;;;13.54;100.00;99005.00;1691517;84;21109;-64
2022/10/02 01:10:13;;;;;;;7.97;4.45;;;;;;;13.54;100.00;99014.26;1691329;84;21132;-65
2022/10/02 01:12:40;;;;;;;5.05;4.03;;;;;;;13.56;100.00;99024.27;1691292;84;21154;-64
2022/10/02 01:15:17;;;;;;;5.80;4.40;;;;;;;13.63;100.00;99028.67;1691395;84;21009;-65
2022/10/02 01:17:45;;;;;;;7.70;4.28;;;;;;;13.61;100.00;99027.44;1691446;84;21053;-65
2022/10/02 01:20:16;;;;;;;9.50;4.50;;;;;;;13.59;100.00;99026.70;1691352;83;21064;-65
2022/10/02 01:23:05;;;;;;;7.70;4.00;;;;;;;13.58;100.00;99019.72;1691539;84;21144;-64
2022/10/02 01:25:32;;;;;;;6.87;4.40;;;;;;;13.55;100.00;99019.94;1691386;84;21202;-65
2022/10/02 01:27:59;;;;;;;7.45;4.60;;;;;;;13.51;100.00;99018.44;1691226;84;21115;-65
2022/10/02 01:30:25;;;;;;;6.42;4.55;;;;;;;13.52;100.00;99010.87;1691509;84;21119;-65
2022/10/02 01:32:55;;;;;;;9.28;4.33;;;;;;;13.48;100.00;99006.75;1691130;84;21118;-66
2022/10/02 01:35:27;;;;;;;5.92;4.17;;;;;;;13.46;100.00;98999.39;1691691;84;21139;-65
2022/10/02 01:37:54;;;;;;;10.95;4.47;;;;;;;13.42;100.00;99001.86;1691335;84;21148;-67
2022/10/02 01:40:30;;;;;;;6.20;4.28;;;;;;;13.39;100.00;99003.41;1691136;84;21165;-64
2022/10/02 01:43:14;;;;;;;9.88;4.90;;;;;;;13.36;100.00;98991.20;1691077;84;21613;-65
2022/10/02 01:46:33;;;;;;;5.75;4.80;;;;;;;13.33;100.00;98993.22;1691655;84;21059;-64
2022/10/02 01:49:36;;;;;;;6.60;5.08;;;;;;;13.28;100.00;98983.44;1615799;88;21111;-64
2022/10/02 01:52:58;;;;;;;8.43;4.90;;;;;;;13.25;100.00;98968.59;1616025;88;21277;-64
2022/10/02 01:55:42;;;;;;;8.10;5.50;;;;;;;13.22;100.00;98964.81;1691628;84;21562;-65
2022/10/02 01:58:32;;;;;;;8.10;4.65;;;;;;;13.18;100.00;98953.61;1662325;86;21580;-65
2022/10/02 02:01:13;;;;;;;10.75;6.22;;;;;;;13.15;100.00;98949.83;1670447;84;21086;-65
2022/10/02 02:04:03;;;;;;;9.43;5.72;;;;;;;13.11;100.00;98939.11;1663506;84;21088;-66
2022/10/02 02:07:03;;;;;;;10.95;5.92;;;;;;;13.08;100.00;98932.69;1658686;85;21097;-66
2022/10/02 02:09:44;;;;;;;10.93;6.20;;;;;;;13.06;100.00;98924.00;1656674;86;21089;-63
2022/10/02 02:12:18;;;;;;;7.05;5.55;;;;;;;13.10;100.00;98924.19;1656870;86;21128;-65
2022/10/02 02:14:49;;;;;;;9.58;6.10;;;;;;;13.08;100.00;98912.02;1651021;86;21554;-64
2022/10/02 02:17:39;;;;;;;7.92;6.17;;;;;;;13.02;100.00;98900.05;1657297;86;21125;-64
2022/10/02 02:20:21;;;;;;;11.18;5.97;;;;;;;13.08;100.00;98893.04;1656716;85;21963;-64
2022/10/02 02:22:50;;;;;;;8.78;6.00;;;;;;;13.08;100.00;98895.68;1656649;86;21042;-65
2022/10/02 02:25:28;;;;;;;9.58;6.12;;;;;;;13.07;100.00;98890.03;1656709;86;21085;-65
2022/10/02 02:28:02;;;;;;;7.47;5.95;;;;;;;13.08;100.00;98877.66;1656971;86;21086;-65
2022/10/02 02:30:30;;;;;;;7.87;5.90;;;;;;;13.07;100.00;98874.18;1656938;86;21121;-65
2022/10/02 02:33:05;;;;;;;8.08;5.78;;;;;;;13.10;100.00;98871.80;1640298;86;21134;-65
2022/10/02 02:35:40;;;;;;;9.70;6.45;;;;;;;13.17;100.00;98869.95;1637301;86;21101;-64
2022/10/02 02:38:12;;;;;;;8.38;6.28;;;;;;;13.19;100.00;98869.38;1656605;86;21065;-65
2022/10/02 02:40:41;;;;;;;12.63;6.97;;;;;;;13.20;100.00;98855.22;1656655;86;21144;-64
2022/10/02 02:43:13;;;;;;;;;;;;;;;13.22;100.00;98850.66;1659181;86;21046;-65
2022/10/02 02:45:53;;;;;;;8.40;6.25;;;;;;;13.22;100.00;98841.87;1682568;85;21094;-65
2022/10/02 02:48:24;;;;;;;11.40;6.62;;;;;;;13.19;100.00;98829.72;1684449;85;21110;-64
2022/10/02 02:51:02;;;;;;;11.73;5.90;;;;;;;13.17;100.00;98825.02;1684352;85;21066;-65
2022/10/02 02:53:41;;;;;;;9.15;5.97;;;;;;;13.16;100.00;98818.05;1684430;85;21607;-65
2022/10/02 02:56:11;;;;;;;12.10;6.28;;;;;;;13.13;100.00;98810.30;1683177;84;21044;-64
2022/10/02 02:59:00;;;;;;;8.75;6.15;;;;;;;13.09;100.00;98796.95;1684393;85;22071;-64
2022/10/02 03:01:27;;;;;;;10.63;7.10;;;;;;;13.07;100.00;98796.21;1684021;85;21057;-66
2022/10/02 03:03:53;;;;;;;9.43;6.33;;;;;;;13.10;100.00;98784.09;1684568;85;21077;-64
2022/10/02 03:06:36;;;;;;;8.70;6.05;;;;;;;13.09;100.00;98770.97;1687975;84;22321;-65
2022/10/02 03:09:06;;;;;;;10.78;6.33;;;;;;;13.05;100.00;98776.97;1691159;84;21588;-65
2022/10/02 03:12:12;;;;;;;5.47;3.80;;;;;;;13.01;100.00;98771.03;1691076;84;21145;-65
2022/10/02 03:15:19;;;;;;;8.20;5.70;;;;;;;12.96;100.00;98763.91;1691186;84;21101;-64
2022/10/02 03:18:10;;;;;;;10.78;6.00;;;;;;;12.98;100.00;98757.20;1691026;84;21061;-64
2022/10/02 03:20:44;;;;;;;;;;;;;;;12.95;100.00;98748.14;1693199;83;21056;-64
2022/10/02 03:23:40;;;;;;;9.58;6.00;;;;;;;12.95;100.00;98740.22;1691399;84;20221;-64
2022/10/02 03:26:20;;;;;;;9.88;6.28;;;;;;;12.92;100.00;98735.16;1691274;84;21145;-63
2022/10/02 03:28:50;;;;;;;;;;;;;;;12.92;100.00;98720.63;1693798;84;21624;-66
2022/10/02 03:31:17;;;;;;;10.32;6.20;;;;;;;12.92;100.00;98703.45;1691355;84;20213;-64
2022/10/02 03:33:44;;;;;;;9.43;5.70;;;;;;;12.94;100.00;98706.83;1691190;84;21029;-65
2022/10/02 03:36:13;;;;;;;8.60;6.15;;;;;;;12.94;100.00;98718.23;1691211;84;21230;-64
2022/10/02 03:38:40;;;;;;;9.85;6.03;;;;;;;12.89;100.00;98718.20;1691509;84;21856;-64
2022/10/02 03:41:07;;;;;;;9.85;6.03;;;;;;;12.88;100.00;98724.42;1691238;84;21080;-63
2022/10/02 03:43:34;;;;;;;11.60;5.83;;;;;;;12.96;100.00;98739.28;1691252;84;21076;-64
2022/10/02 03:46:01;;;;;;;8.95;5.33;;;;;;;12.98;100.00;98736.06;1691201;84;21051;-64
2022/10/02 03:48:27;;;;;;;8.45;5.53;;;;;;;12.98;100.00;98728.97;1691471;84;21143;-65
2022/10/02 03:50:54;;;;;;;9.78;5.65;;;;;;;13.08;100.00;98723.89;1691368;84;21278;-65
2022/10/02 03:53:24;;;;;;;8.80;5.58;;;;;;;13.11;100.00;98711.80;1691339;84;21574;-65
2022/10/02 03:56:11;;;;;;;6.35;5.10;;;;;;;13.08;100.00;98714.64;1691502;84;21105;-65
2022/10/02 03:58:42;;;;;;;11.80;5.40;;;;;;;13.06;100.00;98717.86;1691451;84;21059;-64
2022/10/02 04:01:24;;;;;;;8.90;4.78;;;;;;;13.01;100.00;98743.77;1691274;84;21106;-64
2022/10/02 04:03:55;;;;;;;;;;;;;;;13.01;100.00;98782.92;1693235;84;21132;-65
2022/10/02 04:06:29;;;;;;;9.15;4.80;;;;;;;13.00;100.00;98756.63;1691343;84;20190;-63
2022/10/02 04:09:12;;;;;;;10.32;5.85;;;;;;;12.98;100.00;98742.67;1691011;84;21059;-64
2022/10/02 04:11:56;;;;;;;7.85;5.65;;;;;;;12.99;100.00;98741.70;1691301;84;21106;-64
2022/10/02 04:14:49;;;;;;;14.95;6.28;;;;;;;12.98;100.00;98728.13;1681984;84;21074;-65
2022/10/02 04:17:19;;;;;;;14.25;7.00;;;;;;;12.97;100.00;98717.17;1691305;84;21265;-64
2022/10/02 04:19:58;;;;;;;8.88;6.42;;;;;;;12.94;100.00;98692.30;1691517;83;21154;-66
2022/10/02 04:23:10;;;;;;;10.28;7.10;;;;;;;12.94;100.00;98697.09;1690668;84;21042;-65
2022/10/02 04:25:42;;;;;;;14.07;7.37;;;;;;;12.95;100.00;98679.44;1691365;84;21106;-65
2022/10/02 04:28:22;;;;;;;14.18;8.05;;;;;;;12.94;100.00;98665.39;1691341;84;21113;-65
2022/10/02 04:30:52;;;;;;;12.45;7.28;;;;;;;12.94;100.00;98660.59;1691250;84;21162;-65
2022/10/02 04:33:19;;;;;;;11.93;7.42;;;;;;;12.88;100.00;98667.61;1691223;84;21046;-64
2022/10/02 04:35:54;;;;;;;13.55;8.10;;;;;;;12.91;100.00;98670.06;1691552;84;21516;-64
2022/10/02 04:38:58;;;;;;;14.03;8.20;;;;;;;12.90;100.00;98647.22;1691011;84;21067;-64
2022/10/02 04:41:48;;;;;;;11.38;7.62;;;;;;;12.95;100.00;98645.09;1691449;84;21130;-65
2022/10/02 04:44:38;;;;;;;15.93;8.00;;;;;;;12.90;100.00;98628.72;1682519;84;21171;-65
2022/10/02 04:47:33;;;;;;;18.05;8.58;;;;;;;12.93;100.00;98628.50;1691205;84;21132;-63
2022/10/02 04:50:05;;;;;;;15.65;9.38;;;;;;;12.91;100.00;98638.36;1691224;84;21099;-65
2022/10/02 04:53:11;;;;;;;19.85;9.30;;;;;;;12.92;100.00;98631.63;1691047;84;21095;-67
2022/10/02 04:55:57;;;;;;;12.07;8.73;;;;;;;12.93;100.00;98620.56;1691090;84;21241;-65
2022/10/02 04:58:56;;;;;;;18.98;9.68;;;;;;;12.93;100.00;98607.36;1691505;84;21142;-65
2022/10/02 05:01:50;;;;;;;15.72;9.20;;;;;;;12.95;100.00;98600.17;1691144;84;21116;-66
2022/10/02 05:04:43;;;;;;;12.18;7.80;;;;;;;12.97;100.00;98607.52;1691435;84;21596;-64
2022/10/02 05:07:55;;;;;;;17.45;9.83;;;;;;;12.97;100.00;98608.84;1691077;84;21680;-64
2022/10/02 05:10:33;;;;;;;19.82;9.83;;;;;;;13.00;100.00;98609.96;1691308;84;21140;-66
2022/10/02 05:13:25;;;;;;;12.88;9.65;;;;;;;13.03;100.00;98610.22;1691175;84;21570;-65
2022/10/02 05:16:17;;;;;;;16.60;9.93;;;;;;;13.03;100.00;98595.20;1690886;84;21152;-65
2022/10/02 05:19:22;;;;;;;19.77;9.60;;;;;;;13.03;100.00;98593.88;1685540;84;21101;-65
2022/10/02 05:22:22;;;;;;;15.68;9.78;;;;;;;13.05;100.00;98584.05;1691307;84;21116;-65
2022/10/02 05:25:27;;;;;;;16.15;10.48;;;;;;;13.02;100.00;98571.03;1690854;84;21073;-64
2022/10/02 05:28:11;;;;;;;19.30;9.98;;;;;;;13.08;100.00;98561.34;1691416;84;21501;-65
2022/10/02 05:30:53;;;;;;;15.30;10.08;;;;;;;13.08;100.00;98552.58;1678292;84;21744;-65
2022/10/02 05:33:41;;;;;;;17.98;10.50;;;;;;;13.10;100.00;98542.75;1690716;84;21060;-65
2022/10/02 05:36:41;;;;;;;15.48;10.63;;;;;;;13.13;100.00;98535.91;1640673;87;21098;-65
2022/10/02 05:39:12;;;;;;;16.40;10.32;;;;;;;13.10;100.00;98534.33;1660633;85;21144;-65
2022/10/02 05:42:00;;;;;;;;;;;;;;;13.12;100.00;98531.11;1693969;84;21193;-64
2022/10/02 05:44:36;;;;;;;15.08;10.35;;;;;;;13.13;100.00;98534.09;1691571;84;20226;-65
2022/10/02 05:47:29;;;;;;;13.72;10.45;;;;;;;13.10;100.00;98532.17;1690876;84;21049;-65
2022/10/02 05:50:25;;;;;;;16.12;10.32;;;;;;;13.11;100.00;98537.36;1691189;84;21060;-64
2022/10/02 05:53:21;;;;;;;15.23;11.10;;;;;;;13.13;100.00;98540.70;1691354;84;21081;-65
2022/10/02 05:55:58;;;;;;;13.20;10.72;;;;;;;13.17;100.00;98543.98;1690165;84;21155;-66
2022/10/02 05:58:32;;;;;;;12.98;9.20;;;;;;;13.22;100.00;98541.36;1665298;86;21069;-65
2022/10/02 06:01:23;;;;;;;14.68;11.03;;;;;;;13.27;100.00;98536.22;1691191;84;21589;-66
2022/10/02 06:04:24;;;;;;;20.50;11.20;;;;;;;13.34;100.00;98527.78;1691412;84;21080;-65
2022/10/02 06:06:53;;;;;;;14.28;10.63;;;;;;;13.44;100.00;98517.35;1693862;84;21067;-64
2022/10/02 06:09:32;;;;;;;15.08;10.98;;;;;;;13.51;100.00;98514.61;1699351;84;21146;-64
2022/10/02 06:12:05;;;;;;;18.23;12.23;;;;;;;13.52;100.00;98509.67;1699257;84;21582;-64
2022/10/02 06:14:48;;;;;;;16.73;11.10;;;;;;;13.51;100.00;98501.88;1699424;84;21179;-65
2022/10/02 06:17:21;;;;;;;14.33;10.82;;;;;;;13.53;100.00;98503.44;1699008;84;21088;-65
2022/10/02 06:20:06;;;;;;;19.80;11.93;;;;;;;13.51;100.00;98501.88;1699266;84;21091;-66
2022/10/02 06:23:08;;;;;;;18.95;10.65;;;;;;;13.56;100.00;98501.05;1699152;84;21156;-65
2022/10/02 06:25:48;;;;;;;16.65;10.50;;;;;;;13.60;100.00;98500.70;1698810;84;21130;-65
2022/10/02 06:28:20;;;;;;;16.07;11.43;;;;;;;13.61;100.00;98493.11;1679256;85;21621;-66
2022/10/02 06:30:52;;;;;;;14.75;9.80;;;;;;;13.62;100.00;98495.30;1692870;83;21032;-65
2022/10/02 06:33:25;;;;;;;15.23;10.78;;;;;;;13.62;100.00;98486.88;1718957;83;21027;-65
2022/10/02 06:36:35;;;;;;;14.28;10.90;;;;;;;13.60;100.00;98483.98;1719693;83;21823;-66
2022/10/02 06:39:26;;;;;;;14.75;10.10;;;;;;;13.61;100.00;98474.59;1719454;83;21074;-66
2022/10/02 06:42:25;;;;;;;17.10;9.98;;;;;;;13.65;100.00;98472.58;1719810;83;21063;-66
2022/10/02 06:45:24;;;;;;;17.10;11.48;;;;;;;13.58;100.00;98478.80;1719497;83;21054;-66
2022/10/02 06:48:05;;;;;;;17.73;11.55;;;;;;;13.53;100.00;98466.41;1719554;83;21039;-66
2022/10/02 06:50:48;;;;;;;15.30;11.18;;;;;;;13.55;100.00;98457.89;1719988;83;21737;-66
2022/10/02 06:53:41;;;;;;;13.08;9.78;;;;;;;13.55;100.00;98459.21;1719801;83;21600;-65
2022/10/02 06:56:33;;;;;;;14.60;9.93;;;;;;;13.58;100.00;98456.33;1718593;83;21039;-66
2022/10/02 06:59:55;;;;;;;21.37;14.98;;;;;;;13.64;100.00;98451.03;1719645;83;21084;-66
2022/10/02 07:03:01;;;;;;;21.02;14.43;;;;;;;13.68;100.00;98447.69;1719532;83;21031;-66
2022/10/02 07:06:02;;;;;;;16.45;11.53;;;;;;;13.72;100.00;98443.86;1719450;83;21230;-64
2022/10/02 07:09:08;;;;;;;19.37;13.95;;;;;;;13.76;100.00;98435.56;1718288;83;25657;-66
2022/10/02 07:12:04;;;;;;;20.50;14.25;;;;;;;13.74;100.00;98431.35;1691884;83;21035;-65
2022/10/02 07:15:00;;;;;;;19.40;12.98;;;;;;;13.74;100.00;98423.42;1718323;83;20976;-65
2022/10/02 07:17:59;;;;;;;15.48;11.78;;;;;;;13.75;100.00;98423.77;1719544;83;21022;-65
2022/10/02 07:20:37;;;;;;;21.20;14.18;;;;;;;13.75;100.00;98417.16;1719448;83;21567;-66
2022/10/02 07:23:18;;;;;;;26.77;16.73;;;;;;;13.73;100.00;98408.00;1719588;83;21578;-65
2022/10/02 07:26:06;;;;;;;26.07;17.65;;;;;;;13.76;100.00;98410.92;1720003;83;21344;-66
2022/10/02 07:28:50;;;;;;;24.98;17.37;;;;;;;13.74;100.00;98408.87;1719041;83;21019;-67
2022/10/02 07:31:49;;;;;;;27.27;17.15;;;;;;;13.76;100.00;98405.63;1698981;83;21051;-66
2022/10/02 07:34:27;;;;;;;28.83;19.87;;;;;;;13.79;100.00;98402.73;1706050;83;21156;-66
2022/10/02 07:37:46;;;;;;;25.10;17.42;;;;;;;13.80;100.00;98403.95;1719524;83;20999;-66
2022/10/02 07:40:35;;;;;;;25.60;17.50;;;;;;;13.75;100.00;98406.08;1719608;83;21150;-65
2022/10/02 07:43:28;;;;;;;30.17;21.02;;;;;;;13.70;100.00;98407.41;1719867;83;21047;-66
2022/10/02 07:46:08;;;;;;;38.30;23.18;;;;;;;13.70;100.00;98404.28;1690450;84;21058;-65
2022/10/02 07:49:08;;;;;;;33.18;24.23;;;;;;;13.71;100.00;98403.34;1690893;84;21876;-65
2022/10/02 07:51:46;;;;;;;28.20;21.07;;;;;;;13.74;100.00;98403.58;1690891;84;21046;-66
2022/10/02 07:54:51;;;;;;;24.95;19.87;;;;;;;13.77;100.00;98408.62;1690826;84;21086;-66
2022/10/02 07:57:44;;;;;;;35.88;23.45;;;;;;;13.80;100.00;98411.02;1691088;84;21055;-66
2022/10/02 08:00:14;;;;;;;27.58;20.35;;;;;;;13.82;100.00;98405.12;1690654;84;21573;-65
2022/10/02 08:03:00;;;;;;;25.75;20.35;;;;;;;13.81;100.00;98399.00;1691001;84;21258;-66
2022/10/02 08:05:53;;;;;;;28.50;20.52;;;;;;;13.89;100.00;98393.10;1690281;84;21086;-67
2022/10/02 08:08:39;;;;;;;28.12;20.50;;;;;;;13.88;100.00;98391.92;1657309;86;21084;-66
2022/10/02 08:11:29;;;;;;;30.90;21.10;;;;;;;13.89;100.00;98390.45;1666606;86;21595;-66
2022/10/02 08:14:07;;;;;;;34.88;21.40;;;;;;;13.88;100.00;98386.14;1666445;86;21163;-64
2022/10/02 08:16:52;;;;;;;27.60;21.30;;;;;;;13.86;100.00;98372.19;1666437;86;21257;-67
2022/10/02 08:19:34;;;;;;;32.15;20.35;;;;;;;13.86;100.00;98357.63;1666008;84;21046;-66
2022/10/02 08:22:08;;;;;;;27.70;20.82;;;;;;;13.86;100.00;98347.05;1666589;86;21121;-67
2022/10/02 08:24:40;;;;;;;29.57;20.80;;;;;;;13.85;100.00;98344.05;1666883;85;21572;-66
2022/10/02 08:27:11;;;;;;;29.82;20.05;;;;;;;13.88;100.00;98334.55;1666586;86;21099;-66
2022/10/02 08:29:52;;;;;;;27.22;20.12;;;;;;;13.90;100.00;98332.62;1666767;86;21234;-66
2022/10/02 08:32:21;;;;;;;25.45;17.17;;;;;;;13.92;100.00;98330.70;1666621;84;21588;-66
2022/10/02 08:34:48;;;;;;;22.00;16.67;;;;;;;13.97;100.00;98335.13;1666638;86;21047;-66
2022/10/02 08:37:44;;;;;;;29.18;16.67;;;;;;;13.99;100.00;98327.92;1647401;86;21118;-66
2022/10/02 08:40:45;;;;;;;22.37;17.42;;;;;;;14.03;100.00;98336.44;1666536;86;21141;-67
2022/10/02 08:43:44;;;;;;;;;;;;;;;14.10;100.00;98332.82;1668629;85;21156;-64
2022/10/02 08:47:08;;;;;;;17.40;13.72;;;;;;;14.18;100.00;98327.28;1666636;86;20200;-65
2022/10/02 08:50:00;;;;;;;18.52;14.33;;;;;;;14.28;100.00;98321.58;1584906;90;21051;-67
2022/10/02 08:53:07;;;;;;;18.05;12.90;;;;;;;14.43;100.00;98320.84;1585078;89;21251;-65
2022/10/02 08:56:02;;;;;;;16.30;12.78;;;;;;;14.58;100.00;98312.62;1647338;86;21084;-65
2022/10/02 08:58:53;;;;;;;17.00;12.35;;;;;;;14.68;100.00;98306.94;1666601;86;21056;-67
2022/10/02 09:01:55;;;;;;;17.25;12.65;;;;;;;14.77;100.00;98310.14;1666322;86;21092;-67
2022/10/02 09:04:48;;;;;;;13.85;11.20;;;;;;;14.92;100.00;98311.98;1666643;86;21636;-66
2022/10/02 09:07:55;;;;;;;10.85;9.65;;;;;;;15.10;100.00;98306.95;1666213;83;21139;-68
2022/10/02 09:10:44;;;;;;;11.80;9.33;;;;;;;15.37;100.00;98309.53;1666807;86;21104;-66
2022/10/02 09:14:08;;;;;;;10.13;7.22;;;;;;;15.70;100.00;98298.70;1666036;85;21664;-67
2022/10/02 09:17:18;;;;;;;6.83;5.95;;;;;;;15.91;100.00;98293.81;1665600;86;21656;-66
2022/10/02 09:20:18;;;;;;;5.97;5.37;;;;;;;16.03;100.00;98294.04;1666449;84;21092;-65
2022/10/02 09:23:09;;;;;;;7.85;5.03;;;;;;;16.08;100.00;98293.63;1666510;86;21556;-67
2022/10/02 09:25:53;;;;;;;4.90;4.20;;;;;;;16.05;100.00;98300.05;1666773;86;21136;-67
2022/10/02 09:28:46;;;;;;;5.05;3.90;;;;;;;15.93;100.00;98290.53;1666381;84;21239;-66
2022/10/02 09:31:47;;;;;;;3.92;3.52;;;;;;;15.89;100.00;98293.10;1633860;87;21549;-66
2022/10/02 09:35:02;;;;;;;5.83;3.42;;;;;;;15.86;100.00;98286.75;1634250;87;21166;-65
2022/10/02 09:37:44;;;;;;;4.20;3.17;;;;;;;15.82;100.00;98295.95;1633881;87;21057;-66
2022/10/02 09:40:45;;;;;;;5.20;3.00;;;;;;;15.82;100.00;98293.29;1633721;87;21128;-66
2022/10/02 09:43:53;;;;;;;3.02;2.52;;;;;;;15.72;100.00;98296.75;1634042;87;21150;-66
2022/10/02 09:46:50;;;;;;;3.02;2.70;;;;;;;15.61;100.00;98295.48;1634074;87;21645;-66
2022/10/02 09:50:05;;;;;;;2.30;2.10;;;;;;;15.50;100.00;98296.90;1633914;87;21080;-67
2022/10/02 09:52:52;;;;;;;2.95;2.17;;;;;;;15.34;100.00;98297.88;1560039;91;22341;-66
2022/10/02 09:56:05;;;;;;;3.47;2.72;;;;;;;15.30;100.00;98303.45;1560065;91;21528;-66
2022/10/02 09:59:23;;;;;;;2.90;2.10;;;;;;;15.29;100.00;98303.08;1619915;87;21172;-64
2022/10/02 10:02:31;;;;;;;2.70;2.00;;;;;;;15.34;100.00;98305.83;1633357;87;21092;-65
2022/10/02 10:05:26;;;;;;;3.05;2.05;;;;;;;15.33;100.00;98298.36;1633952;87;21596;-65
2022/10/02 10:08:24;;;;;;;2.65;1.80;;;;;;;15.37;100.00;98293.62;1634430;87;21179;-66
2022/10/02 10:11:21;;;;;;;2.30;2.10;;;;;;;15.41;100.00;98300.34;1637956;87;21567;-67
2022/10/02 10:14:39;;;;;;;8.50;2.25;;;;;;;15.43;100.00;98306.36;1638001;87;21172;-66
2022/10/02 10:17:26;;;;;;;3.08;1.72;;;;;;;15.44;100.00;98302.76;1637596;87;21077;-66
2022/10/02 10:20:35;;;;;;;2.05;1.80;;;;;;;15.42;100.00;98307.34;1636800;86;21520;-66
2022/10/02 10:23:48;;;;;;;3.70;1.72;;;;;;;15.40;100.00;98312.77;1638017;87;21644;-66
2022/10/02 10:26:48;;;;;;;2.50;2.10;;;;;;;15.36;100.00;98306.54;1638368;87;22128;-65
2022/10/02 10:29:38;;;;;;;2.58;2.10;;;;;;;15.30;100.00;98299.96;1638176;87;21893;-66
2022/10/02 10:32:51;;;;;;;2.58;2.05;;;;;;;15.34;100.00;98304.50;1617050;87;21147;-64
2022/10/02 10:35:51;;;;;;;2.77;2.12;;;;;;;15.38;100.00;98310.73;1637943;87;21109;-66
2022/10/02 10:38:50;;;;;;;3.67;1.90;;;;;;;15.43;100.00;98300.56;1637844;87;21133;-68
2022/10/02 10:41:45;;;;;;;2.00;1.80;;;;;;;15.53;100.00;98316.55;1589758;87;21168;-66
2022/10/02 10:44:39;;;;;;;2.40;2.15;;;;;;;15.48;100.00;98318.27;1586087;90;21182;-67
2022/10/02 10:47:39;;;;;;;2.22;2.00;;;;;;;15.44;100.00;98321.32;1632165;87;21072;-66
2022/10/02 10:50:40;;;;;;;2.60;1.90;;;;;;;15.36;100.00;98315.82;1663564;86;21136;-66
2022/10/02 10:53:32;;;;;;;6.10;2.08;;;;;;;15.31;100.00;98313.56;1663606;86;26246;-66
2022/10/02 10:56:15;;;;;;;2.35;1.85;;;;;;;15.26;100.00;98318.42;1662832;85;21092;-65
2022/10/02 10:58:59;;;;;;;2.65;2.00;;;;;;;15.27;100.00;98308.99;1645958;85;21175;-66
2022/10/02 11:01:46;;;;;;;4.12;1.92;;;;;;;15.29;100.00;98312.36;1662968;85;21104;-65
2022/10/02 11:04:38;;;;;;;4.40;2.60;;;;;;;15.28;100.00;98312.02;1663499;86;21068;-66
2022/10/02 11:07:33;;;;;;;4.50;2.72;;;;;;;15.26;100.00;98311.30;1663399;86;21030;-66
2022/10/02 11:10:14;;;;;;;2.85;2.50;;;;;;;15.30;100.00;98309.24;1670298;85;21055;-65
2022/10/02 11:13:18;;;;;;;4.40;2.25;;;;;;;15.31;100.00;98305.61;1671013;85;21557;-67
2022/10/02 11:19:00;;;;;;;5.67;2.65;;;;;;;15.17;100.00;98300.16;1796504;79;22678;-65
2022/10/02 11:21:56;;;;;;;3.17;2.25;;;;;;;15.13;100.00;98305.36;1748366;81;22070;-65
2022/10/02 11:25:02;;;;;;;2.80;2.05;;;;;;;15.03;100.00;98316.39;1748278;82;21137;-66
2022/10/02 11:27:56;;;;;;;1.90;1.60;;;;;;;14.93;100.00;98324.28;1747949;82;21029;-65
2022/10/02 11:30:37;;;;;;;1.72;1.50;;;;;;;14.66;100.00;98331.39;1748492;81;21022;-65
2022/10/02 11:33:22;;;;;;;3.52;1.25;;;;;;;14.39;100.00;98339.75;1722021;82;20985;-66
2022/10/02 11:36:11;;;;;;;2.37;1.27;;;;;;;14.04;100.00;98339.46;1746968;82;21014;-66
2022/10/02 11:39:04;;;;;;;1.77;1.50;;;;;;;13.85;100.00;98346.70;1747992;82;21875;-67
2022/10/02 11:42:18;;;;;;;2.70;1.67;;;;;;;13.77;100.00;98323.95;1748272;81;20973;-66
2022/10/02 11:45:37;;;;;;;2.02;1.40;;;;;;;13.64;100.00;98342.59;1748235;82;21037;-67
2022/10/02 11:48:27;;;;;;;2.47;1.20;;;;;;;13.52;100.00;98329.84;1748203;81;21070;-65
2022/10/02 11:51:11;;;;;;;1.10;1.00;;;;;;;13.46;100.00;98332.98;1748026;82;21046;-65
2022/10/02 11:54:14;;;;;;;2.47;1.05;;;;;;;13.33;100.00;98322.98;1748049;82;21114;-67
2022/10/02 11:57:15;;;;;;;1.30;1.20;;;;;;;13.11;100.00;98331.22;1748255;81;21081;-66
2022/10/02 12:00:04;;;;;;;4.17;2.00;;;;;;;12.98;100.00;98325.17;1748006;82;21040;-65
2022/10/02 12:02:45;;;;;;;1.90;1.30;;;;;;;12.95;100.00;98333.30;1746328;82;21080;-66
2022/10/02 12:05:32;;;;;;;1.47;1.30;;;;;;;12.87;100.00;98344.46;1737767;82;21064;-65
2022/10/02 12:08:03;;;;;;;2.15;1.65;;;;;;;12.78;100.00;98347.30;1748202;81;21140;-65
2022/10/02 12:10:57;;;;;;;5.10;1.85;;;;;;;12.73;100.00;98353.90;1748053;82;21059;-66
2022/10/02 12:13:41;;;;;;;3.10;1.15;;;;;;;12.63;100.00;98351.10;1748350;82;21541;-66
2022/10/02 12:16:36;;;;;;;1.75;1.30;;;;;;;12.48;100.00;98339.02;1747969;82;21100;-66
2022/10/02 12:19:20;;;;;;;1.52;1.10;;;;;;;12.48;100.00;98334.58;1746547;82;21045;-66
2022/10/02 12:28:30;;;;;;;2.30;1.67;;;;;;;12.24;100.00;98347.77;1747924;82;21077;-66
2022/10/02 12:31:23;;;;;;;10.25;6.12;;;;;;;12.20;100.00;98344.15;1747866;81;20998;-67
2022/10/02 12:34:08;;;;;;;11.53;5.95;;;;;;;12.14;100.00;98348.05;1746978;82;21033;-66
2022/10/02 12:36:55;;;;;;;9.88;1.98;;;;;;;12.11;100.00;98357.03;1745676;82;21166;-65
2022/10/02 12:39:53;;;;;;;4.10;1.90;;;;;;;12.05;100.00;98365.86;1746972;82;21088;-65
2022/10/02 12:42:41;;;;;;;2.98;1.80;;;;;;;11.94;100.00;98366.16;1747873;82;21077;-65
2022/10/02 12:45:28;;;;;;;6.20;2.35;;;;;;;11.86;100.00;98363.17;1726539;82;21600;-66
2022/10/02 12:48:09;;;;;;;3.10;2.37;;;;;;;11.82;100.00;98357.73;1717660;83;21573;-66
2022/10/02 12:51:31;;;;;;;3.12;1.90;;;;;;;11.79;100.00;98356.65;1717588;83;21152;-68
2022/10/02 12:54:34;;;;;;;3.10;1.10;;;;;;;11.77;100.00;98362.50;1717664;83;21041;-66
2022/10/02 13:00:19;;;;;;;6.83;2.70;;;;;;;11.65;100.00;98349.70;1717846;83;20994;-67
2022/10/02 13:03:33;;;;;;;4.12;1.95;;;;;;;11.66;100.00;98348.74;1717819;83;21565;-66
2022/10/02 13:06:39;;;;;;;2.10;0.98;;;;;;;11.63;100.00;98357.36;1717571;83;21047;-66
2022/10/02 13:09:16;;;;;;;2.10;1.82;;;;;;;11.61;100.00;98347.39;1717497;83;21053;-66